Terminal Aerodrome Forecast
Issued by NWS Cleveland, OH

Home | Current Version | Previous Version | Graphics & Text | Print | Product List | Glossary On
Versions: 1 2 3 4 5 6 7 8 9 10 11 12 13 14 15 16 17 18 19 20
323
FTUS41 KCLE 111534 AAA
TAFCAK
TAF AMD
KCAK 111534Z 1116/1212 28010KT 2SM -SHSN OVC025
      TEMPO 1116/1119 1SM -SHSN OVC018
     FM112000 29012KT 6SM -SHSN OVC040
     FM112200 29007KT P6SM OVC040
     FM120400 23005KT P6SM SCT035 BKN100=

USA.gov is the U.S. government's official web portal to all federal, state and local government web resources and services.